Time;durP1;ratioP1;P1;durP2;ratioP2;P2;SDS_P1;SDS_P2;PMS_P1;PMS_P2;Temp;Humidity;BMP_temperature;BMP_pressure;BME280_temperature;BME280_humidity;BME280_pressure;Samples;Min_cycle;Max_cycle;Signal;HPM_P1;HPM_P2
2023/08/01 00:01:38;;;;;;;12.70;7.87;;;;;;;20.47;100.00;98705.91;5112541;28;20224;-61
2023/08/01 00:04:05;;;;;;;14.70;7.90;;;;;;;20.47;100.00;98704.09;5112542;28;20202;-61
2023/08/01 00:06:32;;;;;;;11.87;7.33;;;;;;;20.42;100.00;98706.47;5112301;28;20219;-62
2023/08/01 00:08:59;;;;;;;13.43;8.10;;;;;;;20.45;100.00;98700.06;5112230;28;20205;-61
2023/08/01 00:11:26;;;;;;;15.20;8.17;;;;;;;20.46;100.00;98697.31;5111937;28;20684;-62
2023/08/01 00:13:52;;;;;;;13.80;7.13;;;;;;;20.45;100.00;98703.50;5112053;28;20212;-62
2023/08/01 00:16:19;;;;;;;14.90;8.40;;;;;;;20.44;100.00;98699.28;5112055;28;20232;-62
2023/08/01 00:18:47;;;;;;;13.33;7.47;;;;;;;20.31;100.00;98699.16;5112001;28;20203;-62
2023/08/01 00:21:14;;;;;;;13.97;7.47;;;;;;;20.28;100.00;98699.53;5112090;28;20211;-62
2023/08/01 00:23:41;;;;;;;11.07;6.87;;;;;;;20.29;100.00;98701.13;5111934;28;20291;-61
2023/08/01 00:26:08;;;;;;;9.80;6.23;;;;;;;20.22;100.00;98692.47;5112125;28;20294;-62
2023/08/01 00:28:35;;;;;;;11.83;7.13;;;;;;;20.17;100.00;98687.81;5112037;28;20551;-61
2023/08/01 00:31:06;;;;;;;12.17;6.57;;;;;;;20.17;100.00;98684.41;5111701;28;20199;-62
2023/08/01 00:33:33;;;;;;;9.97;6.40;;;;;;;20.16;100.00;98686.22;5111509;28;20234;-62
2023/08/01 00:36:02;;;;;;;9.53;6.80;;;;;;;20.16;100.00;98680.19;5111223;28;20250;-61
2023/08/01 00:38:29;;;;;;;11.53;6.80;;;;;;;20.13;100.00;98687.38;5111577;28;20201;-61
2023/08/01 00:40:56;;;;;;;11.97;6.77;;;;;;;20.15;100.00;98688.97;5111473;28;20331;-61
2023/08/01 00:43:23;;;;;;;12.20;6.37;;;;;;;20.18;100.00;98686.81;5111577;27;20238;-62
2023/08/01 00:45:50;;;;;;;10.97;6.70;;;;;;;20.13;100.00;98684.78;5111534;28;20208;-62
2023/08/01 00:48:18;;;;;;;10.13;6.00;;;;;;;20.09;100.00;98680.13;5111218;28;20201;-62
2023/08/01 00:50:46;;;;;;;7.43;5.40;;;;;;;20.03;100.00;98686.03;5111357;28;20196;-61
2023/08/01 00:53:14;;;;;;;10.70;6.07;;;;;;;20.00;100.00;98687.19;5111336;28;20658;-61
2023/08/01 00:55:41;;;;;;;9.43;5.30;;;;;;;19.96;100.00;98685.97;5111176;28;20693;-61
2023/08/01 00:58:08;;;;;;;9.53;5.37;;;;;;;19.89;100.00;98685.84;5111226;28;20204;-61
2023/08/01 01:00:36;;;;;;;8.47;5.00;;;;;;;19.86;100.00;98677.63;5111401;28;20611;-61
2023/08/01 01:03:03;;;;;;;10.67;5.57;;;;;;;19.83;100.00;98678.00;5111306;28;20261;-61
2023/08/01 01:05:36;;;;;;;9.63;5.37;;;;;;;19.82;100.00;98673.81;5110504;28;20209;-62
2023/08/01 01:08:04;;;;;;;8.53;4.73;;;;;;;19.82;100.00;98679.00;5110645;28;20209;-62
2023/08/01 01:10:32;;;;;;;9.30;5.10;;;;;;;19.85;100.00;98670.84;5110772;28;20206;-62
2023/08/01 01:12:59;;;;;;;7.47;4.33;;;;;;;19.80;100.00;98667.97;5110546;28;20211;-61
2023/08/01 01:15:26;;;;;;;5.67;4.10;;;;;;;19.73;100.00;98659.31;5110773;28;20204;-61
2023/08/01 01:17:53;;;;;;;7.20;4.30;;;;;;;19.74;100.00;98658.34;5110629;28;20209;-61
2023/08/01 01:20:24;;;;;;;5.43;3.80;;;;;;;19.72;100.00;98665.47;5110841;28;20554;-61
2023/08/01 01:22:53;;;;;;;5.93;3.80;;;;;;;19.65;100.00;98658.41;5110793;28;20196;-61
2023/08/01 01:25:21;;;;;;;5.83;4.10;;;;;;;19.67;100.00;98653.88;5109926;28;20289;-61
2023/08/01 01:27:49;;;;;;;6.07;3.77;;;;;;;19.70;100.00;98649.31;5110716;28;20203;-61
2023/08/01 01:30:16;;;;;;;4.97;3.63;;;;;;;19.72;100.00;98655.91;5110412;28;20682;-61
2023/08/01 01:32:43;;;;;;;6.13;3.77;;;;;;;19.73;100.00;98648.94;5110322;28;20201;-61
2023/08/01 01:35:11;;;;;;;7.60;3.87;;;;;;;19.76;100.00;98648.59;5110393;28;20673;-61
2023/08/01 01:37:37;;;;;;;5.70;3.63;;;;;;;19.79;100.00;98650.81;5110348;28;20230;-61
2023/08/01 01:40:07;;;;;;;5.97;3.63;;;;;;;19.79;100.00;98650.81;5110575;28;20197;-61
2023/08/01 01:42:34;;;;;;;5.17;3.43;;;;;;;19.77;100.00;98645.00;5110401;28;20208;-61
2023/08/01 01:45:01;;;;;;;5.30;3.40;;;;;;;19.77;100.00;98645.00;5110372;28;20212;-62
2023/08/01 01:47:28;;;;;;;7.00;3.43;;;;;;;19.71;100.00;98643.13;5110291;28;20242;-62
2023/08/01 01:49:55;;;;;;;4.57;3.30;;;;;;;19.65;100.00;98640.25;5110322;28;20207;-62
2023/08/01 01:52:21;;;;;;;5.17;3.60;;;;;;;19.62;100.00;98642.38;5110254;28;20216;-62
2023/08/01 01:54:48;;;;;;;6.80;3.37;;;;;;;19.57;100.00;98635.13;5110316;28;20241;-62
2023/08/01 01:57:16;;;;;;;4.40;3.00;;;;;;;19.52;100.00;98642.66;5110034;28;20255;-62
2023/08/01 01:59:43;;;;;;;5.27;3.17;;;;;;;19.51;100.00;98642.84;5109984;28;20207;-62
2023/08/01 02:02:10;;;;;;;5.37;3.20;;;;;;;19.47;100.00;98642.41;5110223;28;20203;-62
2023/08/01 02:04:37;;;;;;;7.93;3.20;;;;;;;19.42;100.00;98650.69;5109908;28;20220;-62
2023/08/01 02:07:04;;;;;;;4.17;2.93;;;;;;;19.41;100.00;98646.50;5110077;28;20195;-62
2023/08/01 02:09:31;;;;;;;3.80;2.70;;;;;;;19.32;100.00;98655.34;5110061;28;20200;-62
2023/08/01 02:11:58;;;;;;;7.87;3.03;;;;;;;19.31;100.00;98665.88;5109886;28;20216;-62
2023/08/01 02:14:26;;;;;;;3.70;2.67;;;;;;;19.23;100.00;98659.00;5109903;28;20206;-62
2023/08/01 02:16:53;;;;;;;3.30;2.60;;;;;;;19.18;100.00;98662.13;5108841;28;20622;-62
2023/08/01 02:19:20;;;;;;;3.60;2.80;;;;;;;19.13;100.00;98659.25;5109434;28;20204;-62
2023/08/01 02:21:47;;;;;;;5.57;2.80;;;;;;;19.11;100.00;98660.41;5109773;28;20202;-62
2023/08/01 02:24:13;;;;;;;5.50;2.67;;;;;;;19.09;100.00;98663.19;5109351;28;20723;-62
2023/08/01 02:26:40;;;;;;;3.47;2.63;;;;;;;19.06;100.00;98666.13;5109602;28;20203;-62
2023/08/01 02:29:07;;;;;;;3.93;2.60;;;;;;;19.01;100.00;98660.66;5109804;28;20206;-62
2023/08/01 02:31:36;;;;;;;5.70;2.90;;;;;;;18.94;100.00;98659.75;5109278;28;20199;-62
2023/08/01 02:34:03;;;;;;;3.73;2.80;;;;;;;18.94;100.00;98659.75;5109407;28;20254;-62
2023/08/01 02:36:30;;;;;;;3.67;2.37;;;;;;;18.94;100.00;98659.75;5109190;28;20253;-62
2023/08/01 02:38:56;;;;;;;3.13;2.57;;;;;;;18.89;100.00;98656.88;5109249;28;20198;-61
2023/08/01 02:41:23;;;;;;;3.33;2.43;;;;;;;18.78;100.00;98666.66;5109346;28;20203;-62
2023/08/01 02:43:50;;;;;;;5.80;2.57;;;;;;;18.70;100.00;98671.91;5109378;28;20474;-62
2023/08/01 02:46:17;;;;;;;3.57;2.57;;;;;;;18.67;100.00;98672.22;5109540;28;20195;-62
2023/08/01 02:48:45;;;;;;;5.10;2.90;;;;;;;18.65;100.00;98670.78;5108819;28;20220;-62
2023/08/01 02:51:12;;;;;;;4.50;2.50;;;;;;;18.55;100.00;98671.00;5109080;28;20588;-62
2023/08/01 02:53:41;;;;;;;3.33;2.20;;;;;;;18.58;100.00;98675.84;5109271;28;20206;-62
2023/08/01 02:56:09;;;;;;;3.47;2.50;;;;;;;18.62;100.00;98674.53;5109103;28;20528;-62
2023/08/01 02:58:37;;;;;;;3.67;2.63;;;;;;;18.62;100.00;98671.94;5109442;28;20661;-62
2023/08/01 03:01:09;;;;;;;5.07;2.40;;;;;;;18.65;100.00;98676.78;5108932;28;20548;-62
2023/08/01 03:03:36;;;;;;;4.20;2.60;;;;;;;18.63;100.00;98678.72;5108936;28;20197;-62
2023/08/01 03:06:04;;;;;;;4.87;2.63;;;;;;;18.71;100.00;98686.44;5108614;28;20259;-62
2023/08/01 03:08:31;;;;;;;3.13;2.23;;;;;;;18.71;100.00;98686.44;5108662;28;20288;-62
2023/08/01 03:10:59;;;;;;;3.00;2.33;;;;;;;18.73;100.00;98679.34;5108880;28;20202;-62
2023/08/01 03:13:26;;;;;;;3.23;2.10;;;;;;;18.75;100.00;98672.19;5108930;28;20209;-62
2023/08/01 03:15:52;;;;;;;3.10;2.43;;;;;;;18.75;100.00;98672.19;5108315;28;20202;-62
2023/08/01 03:18:19;;;;;;;3.50;2.20;;;;;;;18.81;100.00;98686.22;5108903;28;20198;-62
2023/08/01 03:20:46;;;;;;;3.50;2.30;;;;;;;18.82;100.00;98671.50;5108690;28;20201;-62
2023/08/01 03:23:14;;;;;;;3.53;2.40;;;;;;;18.86;100.00;98683.13;5108993;28;20209;-62
2023/08/01 03:25:41;;;;;;;3.27;2.27;;;;;;;18.87;100.00;98679.56;5108636;28;20197;-62
2023/08/01 03:28:09;;;;;;;3.67;2.57;;;;;;;18.83;100.00;98684.28;5108488;28;20200;-62
2023/08/01 03:30:36;;;;;;;3.60;2.57;;;;;;;18.83;100.00;98688.66;5108444;28;20234;-61
2023/08/01 03:33:03;;;;;;;5.17;2.37;;;;;;;18.82;100.00;98687.03;5108351;28;20608;-62
2023/08/01 03:35:30;;;;;;;4.13;2.40;;;;;;;18.74;100.00;98686.13;5106922;28;20255;-62
2023/08/01 03:37:57;;;;;;;4.67;2.37;;;;;;;18.70;100.00;98690.03;5108161;28;20234;-61
2023/08/01 03:40:26;;;;;;;11.53;2.70;;;;;;;18.67;100.00;98687.75;5108539;28;20198;-62
2023/08/01 03:42:53;;;;;;;3.43;2.23;;;;;;;18.75;100.00;98692.91;5108427;28;20202;-61
2023/08/01 03:45:20;;;;;;;4.07;2.20;;;;;;;18.83;100.00;98699.03;5108523;28;20478;-61
2023/08/01 03:47:47;;;;;;;2.90;2.20;;;;;;;18.89;100.00;98698.31;5108205;28;20199;-61
2023/08/01 03:50:14;;;;;;;4.43;2.50;;;;;;;18.93;100.00;98697.78;5108535;28;20204;-61
2023/08/01 03:52:41;;;;;;;3.47;2.43;;;;;;;18.99;100.00;98698.88;5108773;28;20252;-61
2023/08/01 03:55:09;;;;;;;2.97;2.33;;;;;;;18.99;100.00;98699.72;5108320;28;20673;-62
2023/08/01 03:57:38;;;;;;;3.37;2.00;;;;;;;18.95;100.00;98703.59;5108120;28;20248;-61
2023/08/01 04:00:13;;;;;;;2.47;2.10;;;;;;;18.88;100.00;98707.06;5108286;28;20209;-61
2023/08/01 04:02:40;;;;;;;3.27;2.13;;;;;;;18.82;100.00;98702.56;5108160;28;20565;-61
2023/08/01 04:05:08;;;;;;;6.40;2.17;;;;;;;18.80;100.00;98699.38;5108171;28;20196;-61
2023/08/01 04:07:35;;;;;;;3.33;2.40;;;;;;;18.80;100.00;98704.56;5108590;28;20253;-62
2023/08/01 04:10:02;;;;;;;2.43;2.00;;;;;;;18.84;100.00;98698.03;5108035;28;20208;-62
2023/08/01 04:12:29;;;;;;;2.87;2.13;;;;;;;18.77;100.00;98698.72;5108241;28;20204;-62
2023/08/01 04:14:57;;;;;;;3.50;2.17;;;;;;;18.77;100.00;98703.09;5108194;28;20211;-62
2023/08/01 04:17:24;;;;;;;2.73;1.97;;;;;;;18.86;100.00;98703.84;5107924;28;20236;-62
2023/08/01 04:19:51;;;;;;;2.50;1.87;;;;;;;18.96;100.00;98699.22;5107940;28;20223;-61
2023/08/01 04:22:18;;;;;;;3.10;2.10;;;;;;;19.01;100.00;98696.94;5107893;28;20202;-61
2023/08/01 04:24:45;;;;;;;4.63;1.90;;;;;;;19.05;100.00;98694.78;5108072;28;20209;-61
2023/08/01 04:27:12;;;;;;;3.27;2.37;;;;;;;19.11;100.00;98697.50;5107910;28;20201;-61
2023/08/01 04:29:39;;;;;;;3.73;1.97;;;;;;;19.05;100.00;98692.19;5108107;28;20203;-62
2023/08/01 04:32:08;;;;;;;5.53;2.20;;;;;;;19.06;100.00;98697.22;5108280;28;20199;-61
2023/08/01 04:34:35;;;;;;;3.07;1.97;;;;;;;19.10;100.00;98693.28;5107892;28;20671;-61
2023/08/01 04:37:02;;;;;;;8.20;2.40;;;;;;;19.13;100.00;98703.31;5107737;28;20232;-62
2023/08/01 04:39:29;;;;;;;2.50;1.93;;;;;;;19.16;100.00;98699.56;5107783;28;20211;-61
2023/08/01 04:41:55;;;;;;;2.53;2.00;;;;;;;19.19;100.00;98705.19;5110545;28;20640;-61
2023/08/01 04:44:22;;;;;;;2.60;1.97;;;;;;;19.23;100.00;98703.88;5111453;28;20210;-61
2023/08/01 04:46:49;;;;;;;2.80;2.07;;;;;;;19.35;100.00;98703.44;5111335;28;20203;-61
2023/08/01 04:49:17;;;;;;;3.27;2.30;;;;;;;19.43;100.00;98709.38;5111261;28;20200;-62
2023/08/01 04:51:45;;;;;;;2.80;1.87;;;;;;;19.49;100.00;98712.22;5111214;28;20209;-62
2023/08/01 04:54:12;;;;;;;3.37;2.07;;;;;;;19.63;100.00;98712.25;5111082;28;20583;-62
2023/08/01 04:56:39;;;;;;;4.53;2.10;;;;;;;19.78;100.00;98714.03;5111398;28;20199;-61
2023/08/01 04:59:06;;;;;;;2.80;1.87;;;;;;;19.83;100.00;98716.91;5111221;28;20204;-61
2023/08/01 05:01:32;;;;;;;4.87;2.20;;;;;;;19.93;100.00;98727.03;5111305;28;20207;-61
2023/08/01 05:03:59;;;;;;;2.33;2.10;;;;;;;20.01;100.00;98732.13;5110999;28;20225;-61
2023/08/01 05:06:28;;;;;;;6.70;2.00;;;;;;;20.15;100.00;98743.47;5111031;28;20239;-61
2023/08/01 05:08:55;;;;;;;3.63;2.23;;;;;;;20.31;100.00;98735.50;5110972;28;20216;-61
2023/08/01 05:11:22;;;;;;;3.00;2.00;;;;;;;20.51;100.00;98736.53;5110976;28;20228;-61
2023/08/01 05:13:49;;;;;;;3.67;2.40;;;;;;;20.70;100.00;98729.16;5111062;28;20639;-61
2023/08/01 05:16:16;;;;;;;2.33;1.70;;;;;;;20.95;100.00;98727.78;5110891;28;20211;-61
2023/08/01 05:18:43;;;;;;;3.23;2.00;;;;;;;21.09;100.00;98727.91;5110967;28;20246;-61
2023/08/01 05:21:10;;;;;;;2.67;2.07;;;;;;;21.16;100.00;98731.38;5110817;28;20200;-61
2023/08/01 05:23:38;;;;;;;3.07;2.20;;;;;;;21.35;100.00;98738.53;5110616;28;20202;-61
2023/08/01 05:26:05;;;;;;;3.30;2.33;;;;;;;21.33;98.76;98745.72;5110919;28;20223;-61
2023/08/01 05:28:32;;;;;;;3.60;2.30;;;;;;;21.58;100.00;98737.50;5110568;28;20206;-61
2023/08/01 05:30:59;;;;;;;4.47;2.37;;;;;;;21.65;100.00;98743.56;5110591;28;20758;-61
2023/08/01 05:33:26;;;;;;;4.67;2.20;;;;;;;21.75;99.89;98746.63;5110668;28;20208;-61
2023/08/01 05:35:52;;;;;;;4.05;2.20;;;;;;;21.91;100.00;98743.72;5110460;28;20689;-61
2023/08/01 05:38:19;;;;;;;4.20;2.40;;;;;;;21.95;99.40;98745.94;5110353;28;20239;-61
2023/08/01 05:40:48;;;;;;;2.60;2.10;;;;;;;22.04;98.37;98742.97;5110603;28;20206;-61
2023/08/01 05:43:14;;;;;;;2.92;2.08;;;;;;;22.15;96.84;98754.66;5110418;28;20206;-61
2023/08/01 05:45:41;;;;;;;3.15;2.25;;;;;;;22.28;98.67;98749.53;5110650;28;20228;-61
2023/08/01 05:48:08;;;;;;;5.60;2.15;;;;;;;22.44;97.87;98744.97;5110543;28;20228;-62
2023/08/01 05:50:35;;;;;;;5.03;2.17;;;;;;;22.47;98.33;98742.78;5110179;28;20201;-60
2023/08/01 05:53:02;;;;;;;5.00;2.20;;;;;;;22.64;96.31;98752.84;5110145;28;20197;-60
2023/08/01 05:55:29;;;;;;;5.95;2.10;;;;;;;22.74;96.30;98741.03;5110162;28;20674;-61
2023/08/01 05:57:57;;;;;;;3.42;2.30;;;;;;;22.82;93.72;98745.25;5109653;28;20229;-60
2023/08/01 06:00:24;;;;;;;5.15;2.15;;;;;;;22.90;96.05;98752.09;5110517;28;20201;-60
2023/08/01 06:02:51;;;;;;;2.85;2.00;;;;;;;23.00;90.42;98757.75;5109911;28;20200;-60
2023/08/01 06:05:17;;;;;;;2.72;1.98;;;;;;;23.22;92.52;98759.19;5110136;28;20194;-62
2023/08/01 06:07:44;;;;;;;2.40;2.00;;;;;;;23.21;91.87;98770.63;5110250;28;20580;-60
2023/08/01 06:10:11;;;;;;;2.75;1.80;;;;;;;23.27;92.17;98764.59;5109886;28;20197;-60
2023/08/01 06:12:38;;;;;;;2.97;2.28;;;;;;;23.41;91.08;98764.59;5110260;28;20194;-59
2023/08/01 06:15:07;;;;;;;3.45;2.33;;;;;;;23.44;91.26;98764.19;5109844;28;20221;-61
2023/08/01 06:17:34;;;;;;;3.78;2.00;;;;;;;23.55;90.50;98766.19;5109825;28;20232;-60
2023/08/01 06:20:03;;;;;;;3.72;2.53;;;;;;;23.79;93.22;98762.16;5109471;28;20211;-59
2023/08/01 06:22:30;;;;;;;3.20;2.40;;;;;;;23.94;92.17;98769.78;5109689;28;20399;-60
2023/08/01 06:24:57;;;;;;;3.17;2.38;;;;;;;24.12;92.21;98774.34;5109499;28;20652;-60
2023/08/01 06:27:24;;;;;;;4.72;2.50;;;;;;;24.22;91.64;98769.47;5109450;28;20197;-59
2023/08/01 06:29:51;;;;;;;2.83;2.38;;;;;;;24.27;86.68;98759.19;5109441;28;20198;-59
2023/08/01 06:32:19;;;;;;;3.38;2.63;;;;;;;24.39;89.07;98760.16;5109429;28;20201;-60
2023/08/01 06:34:46;;;;;;;3.88;3.03;;;;;;;24.46;90.04;98762.75;5108997;28;20223;-60
2023/08/01 06:37:13;;;;;;;4.38;3.30;;;;;;;24.44;88.95;98758.78;5109257;28;20235;-60
2023/08/01 06:39:39;;;;;;;6.50;3.33;;;;;;;24.72;95.30;98766.25;5109404;28;20224;-60
2023/08/01 06:42:07;;;;;;;3.97;3.05;;;;;;;24.84;92.12;98765.38;5109215;28;20197;-60
2023/08/01 06:44:34;;;;;;;4.65;3.33;;;;;;;24.98;89.44;98771.31;5109537;28;20201;-61
2023/08/01 06:47:01;;;;;;;8.95;4.20;;;;;;;25.07;89.72;98764.81;5108939;28;20205;-60
2023/08/01 06:49:29;;;;;;;6.30;4.20;;;;;;;25.32;98.84;98761.44;5108943;28;20201;-60
2023/08/01 06:51:56;;;;;;;6.30;4.28;;;;;;;25.41;92.33;98765.38;5109047;28;20203;-62
2023/08/01 06:54:23;;;;;;;10.30;5.55;;;;;;;25.59;93.47;98774.28;5108984;28;20228;-61
2023/08/01 06:56:50;;;;;;;6.82;4.60;;;;;;;25.73;97.20;98762.66;5109044;28;20201;-62
2023/08/01 06:59:17;;;;;;;6.07;4.53;;;;;;;25.91;95.40;98759.28;5108824;28;20240;-62
2023/08/01 07:01:44;;;;;;;105.55;58.58;;;;;;;26.03;92.88;98756.72;5108912;28;20544;-64
2023/08/01 07:04:11;;;;;;;7.97;5.13;;;;;;;26.05;91.67;98749.47;5108545;28;20208;-63
2023/08/01 07:06:40;;;;;;;6.40;3.97;;;;;;;26.20;86.16;98757.75;5108711;28;20288;-62
2023/08/01 07:09:08;;;;;;;9.52;4.30;;;;;;;26.11;87.51;98765.09;5108857;28;20287;-61
2023/08/01 07:14:56;;;;;;;8.45;6.20;;;;;;;26.30;87.51;98757.25;5108670;28;20739;-60
2023/08/01 07:17:23;;;;;;;7.15;4.80;;;;;;;26.40;90.53;98752.25;5108453;28;20194;-63
2023/08/01 07:19:50;;;;;;;5.88;4.10;;;;;;;26.30;85.60;98768.50;5108594;28;20221;-62
2023/08/01 07:22:18;;;;;;;10.43;5.22;;;;;;;26.14;89.27;98763.88;5108699;28;20696;-64
2023/08/01 07:24:45;;;;;;;5.60;4.30;;;;;;;26.36;86.49;98767.63;5108566;28;20197;-62
2023/08/01 07:27:12;;;;;;;9.32;5.95;;;;;;;26.57;91.36;98762.97;5108567;28;20205;-63
2023/08/01 07:29:38;;;;;;;5.88;4.63;;;;;;;26.60;87.80;98770.38;5108351;28;20235;-63
2023/08/01 07:32:06;;;;;;;6.38;4.55;;;;;;;26.67;85.35;98768.44;5108567;28;20197;-63
2023/08/01 07:34:33;;;;;;;4.72;4.00;;;;;;;26.84;87.80;98768.63;5108428;28;20197;-63
2023/08/01 07:37:00;;;;;;;4.85;4.20;;;;;;;26.93;85.37;98766.47;5108225;28;20583;-63
2023/08/01 07:39:28;;;;;;;5.13;4.18;;;;;;;27.25;88.97;98765.19;5108158;28;20236;-63
2023/08/01 07:41:56;;;;;;;9.32;4.65;;;;;;;27.21;83.57;98764.06;5107956;28;20208;-63
2023/08/01 07:44:23;;;;;;;5.55;4.00;;;;;;;27.21;84.21;98769.31;5108535;28;20210;-63
2023/08/01 07:46:50;;;;;;;5.10;3.85;;;;;;;27.21;87.81;98764.06;5108265;28;20194;-63
2023/08/01 07:49:16;;;;;;;5.13;4.03;;;;;;;26.99;81.73;98774.25;5108137;28;20445;-64
2023/08/01 07:51:43;;;;;;;5.43;3.90;;;;;;;26.91;82.43;98768.50;5108165;28;20197;-63
2023/08/01 07:54:11;;;;;;;6.13;3.75;;;;;;;27.17;87.50;98772.59;5108415;28;20227;-64
2023/08/01 07:56:39;;;;;;;6.90;4.20;;;;;;;27.09;81.71;98776.34;5108437;28;20228;-63
2023/08/01 07:59:06;;;;;;;4.55;3.85;;;;;;;27.05;82.89;98775.16;5108160;28;20233;-63
2023/08/01 08:01:33;;;;;;;5.53;4.15;;;;;;;27.39;87.24;98767.59;5108098;28;20212;-63
2023/08/01 08:04:00;;;;;;;6.60;4.18;;;;;;;27.52;80.27;98770.00;5107809;28;20221;-64
2023/08/01 08:06:26;;;;;;;4.47;3.50;;;;;;;27.89;83.87;98770.56;5107359;28;20245;-63
2023/08/01 08:08:53;;;;;;;5.40;3.75;;;;;;;28.11;83.22;98762.09;5107797;28;20209;-64
2023/08/01 08:11:20;;;;;;;3.70;3.20;;;;;;;28.18;79.76;98768.78;5108016;28;20201;-63
2023/08/01 08:13:48;;;;;;;5.03;3.88;;;;;;;28.02;78.54;98769.53;5107780;28;20194;-64
2023/08/01 08:16:15;;;;;;;5.30;3.85;;;;;;;27.76;83.24;98765.53;5110165;28;20587;-64
2023/08/01 08:18:42;;;;;;;4.40;3.63;;;;;;;28.09;80.56;98753.63;5111990;28;20225;-63
2023/08/01 08:21:09;;;;;;;5.35;3.58;;;;;;;28.36;81.36;98756.50;5112119;28;20580;-64
2023/08/01 08:23:36;;;;;;;5.65;3.92;;;;;;;28.54;77.79;98766.88;5111958;28;20205;-64
2023/08/01 08:26:04;;;;;;;4.43;3.70;;;;;;;28.54;80.67;98761.63;5112031;28;20205;-64
2023/08/01 08:28:33;;;;;;;5.28;3.70;;;;;;;28.65;75.93;98757.31;5111878;28;20763;-64
2023/08/01 08:31:03;;;;;;;6.97;3.88;;;;;;;29.05;85.27;98753.81;5111812;28;20802;-64
2023/08/01 08:33:30;;;;;;;6.38;4.35;;;;;;;28.95;75.02;98759.69;5111781;28;20197;-64
2023/08/01 08:35:57;;;;;;;6.03;4.10;;;;;;;29.03;79.28;98759.31;5111812;28;20212;-63
2023/08/01 08:38:23;;;;;;;4.97;3.72;;;;;;;29.01;77.48;98750.81;5111523;28;20268;-64
2023/08/01 08:41:02;;;;;;;4.88;3.80;;;;;;;29.05;80.23;98757.22;5111637;28;20197;-65
2023/08/01 08:43:32;;;;;;;5.95;4.00;;;;;;;29.31;75.33;98755.00;5111627;28;20240;-64
2023/08/01 08:46:03;;;;;;;4.45;3.45;;;;;;;29.49;78.18;98749.44;5111332;28;20217;-64
2023/08/01 08:48:32;;;;;;;5.55;3.88;;;;;;;29.79;77.52;98750.94;5111459;28;20347;-64
2023/08/01 08:51:00;;;;;;;5.22;3.95;;;;;;;30.05;79.00;98748.59;5111313;28;20198;-64
2023/08/01 08:53:28;;;;;;;5.45;3.83;;;;;;;30.03;72.06;98758.63;5111778;28;20249;-64
2023/08/01 08:55:54;;;;;;;4.65;3.70;;;;;;;30.11;75.26;98752.91;5111364;28;20201;-64
2023/08/01 08:58:22;;;;;;;4.22;3.25;;;;;;;29.87;75.01;98747.88;5111416;28;20240;-64
2023/08/01 09:00:49;;;;;;;6.15;4.07;;;;;;;29.98;70.29;98744.31;5111202;28;20205;-64
2023/08/01 09:03:17;;;;;;;6.28;3.80;;;;;;;30.29;73.38;98744.69;5111198;28;20197;-63
2023/08/01 09:05:53;;;;;;;4.85;3.85;;;;;;;30.22;68.08;98739.63;5111382;28;20208;-64
2023/08/01 09:08:24;;;;;;;5.38;4.00;;;;;;;30.30;72.93;98741.00;5111517;28;20208;-64
2023/08/01 09:10:51;;;;;;;5.20;3.83;;;;;;;30.61;74.61;98734.19;5110905;28;20616;-64
2023/08/01 09:13:17;;;;;;;4.88;3.60;;;;;;;30.70;70.38;98741.66;5111241;28;20206;-64
2023/08/01 09:15:44;;;;;;;4.43;3.38;;;;;;;30.63;67.17;98739.22;5110836;28;20594;-64
2023/08/01 09:18:11;;;;;;;4.32;3.58;;;;;;;30.85;67.19;98732.06;5110791;28;20236;-64
2023/08/01 09:20:44;;;;;;;8.75;4.22;;;;;;;31.04;68.13;98737.75;5111279;28;20204;-65
2023/08/01 09:23:11;;;;;;;6.32;4.20;;;;;;;31.10;64.23;98741.22;5110970;28;20593;-64
2023/08/01 09:25:39;;;;;;;6.38;3.90;;;;;;;31.06;66.78;98729.56;5110940;28;20189;-64
2023/08/01 09:28:16;;;;;;;4.95;3.78;;;;;;;31.19;66.14;98726.50;5110602;28;20193;-64
2023/08/01 09:30:48;;;;;;;4.38;3.65;;;;;;;31.24;67.49;98718.63;5110923;28;20603;-64
2023/08/01 09:33:15;;;;;;;5.28;3.78;;;;;;;31.53;70.02;98720.91;5110320;28;20213;-64
2023/08/01 09:35:45;;;;;;;5.05;3.75;;;;;;;31.19;62.81;98725.72;5110357;28;20250;-64
2023/08/01 09:38:14;;;;;;;6.30;3.92;;;;;;;30.91;63.85;98724.97;5110607;28;20193;-64
2023/08/01 09:40:41;;;;;;;3.78;3.35;;;;;;;31.23;64.41;98717.00;5110389;28;20197;-65
2023/08/01 09:43:09;;;;;;;4.93;3.80;;;;;;;31.57;70.96;98719.34;5110543;28;20205;-64
2023/08/01 09:45:35;;;;;;;5.88;3.97;;;;;;;31.74;74.20;98717.31;5110438;28;20605;-64
2023/08/01 09:48:03;;;;;;;5.82;4.18;;;;;;;31.61;60.90;98723.06;5110310;28;20580;-64
2023/08/01 09:50:30;;;;;;;4.32;3.50;;;;;;;31.70;67.71;98720.72;5110227;28;20206;-64
2023/08/01 09:53:08;;;;;;;5.38;3.95;;;;;;;31.65;63.85;98710.94;5110096;28;20202;-64
2023/08/01 09:55:35;;;;;;;4.93;3.92;;;;;;;31.87;63.83;98704.66;5110248;28;20205;-64
2023/08/01 09:58:03;;;;;;;5.65;4.05;;;;;;;31.94;72.23;98702.59;5109937;28;20201;-64
2023/08/01 10:00:31;;;;;;;4.18;3.35;;;;;;;32.17;71.13;98704.78;5109951;28;20690;-64
2023/08/01 10:03:01;;;;;;;4.22;3.58;;;;;;;31.97;61.56;98710.00;5110200;28;20198;-64
2023/08/01 10:05:31;;;;;;;4.80;3.90;;;;;;;31.63;58.90;98705.09;5109804;28;20255;-64
2023/08/01 10:08:01;;;;;;;5.68;3.88;;;;;;;31.82;73.66;98697.50;5109752;28;20201;-64
2023/08/01 10:10:28;;;;;;;4.57;3.58;;;;;;;31.96;68.74;98700.47;5110065;28;20212;-64
2023/08/01 10:12:57;;;;;;;5.63;4.22;;;;;;;31.93;58.23;98698.34;5109882;28;20201;-64
2023/08/01 10:15:25;;;;;;;5.60;3.88;;;;;;;32.04;66.98;98689.41;5109928;28;20228;-64
2023/08/01 10:17:52;;;;;;;6.75;4.63;;;;;;;32.24;59.21;98692.09;5110064;28;20405;-64
2023/08/01 10:20:20;;;;;;;4.15;3.75;;;;;;;32.19;55.13;98702.66;5109654;28;20229;-64
2023/08/01 10:22:50;;;;;;;4.72;3.30;;;;;;;32.22;56.13;98691.53;5109535;28;20670;-65
2023/08/01 10:25:21;;;;;;;4.13;3.50;;;;;;;32.36;59.06;98685.75;5109883;28;20197;-65
2023/08/01 10:27:58;;;;;;;5.03;3.83;;;;;;;32.37;56.88;98687.34;5109505;28;20674;-64
2023/08/01 10:30:27;;;;;;;4.95;3.78;;;;;;;32.27;58.54;98687.34;5109843;28;20215;-64
2023/08/01 10:32:56;;;;;;;6.93;3.75;;;;;;;32.29;59.01;98680.72;5109117;28;20208;-64
2023/08/01 10:35:33;;;;;;;4.85;3.83;;;;;;;32.49;63.93;98664.09;5109482;28;20719;-64
2023/08/01 10:38:05;;;;;;;4.82;3.75;;;;;;;32.68;61.40;98677.59;5108723;28;20694;-64
2023/08/01 10:40:39;;;;;;;4.57;3.45;;;;;;;32.78;53.99;98671.50;5109553;28;20564;-64
2023/08/01 10:43:06;;;;;;;4.43;3.38;;;;;;;32.99;58.91;98666.97;5109249;28;20709;-64
2023/08/01 10:45:33;;;;;;;5.00;3.72;;;;;;;33.03;59.59;98657.47;5109332;28;20340;-64
2023/08/01 10:48:10;;;;;;;5.05;3.70;;;;;;;32.86;52.44;98663.78;5108979;28;20206;-64
2023/08/01 10:50:38;;;;;;;4.00;3.30;;;;;;;32.96;58.14;98646.31;5108731;28;20201;-64
2023/08/01 10:53:06;;;;;;;4.78;3.60;;;;;;;33.00;51.79;98648.19;5109768;28;20232;-64
2023/08/01 10:55:46;;;;;;;3.83;3.03;;;;;;;33.13;50.72;98652.94;5109008;28;20268;-64
2023/08/01 10:58:14;;;;;;;4.38;3.47;;;;;;;32.96;49.08;98641.00;5109406;28;20197;-64
2023/08/01 11:00:43;;;;;;;4.03;3.25;;;;;;;32.77;51.50;98633.63;5109278;28;20225;-64
2023/08/01 11:03:10;;;;;;;3.95;3.55;;;;;;;32.80;53.15;98633.09;5108823;28;20717;-64
2023/08/01 11:05:37;;;;;;;3.38;3.03;;;;;;;32.95;55.87;98629.63;5109054;28;20197;-65
2023/08/01 11:08:05;;;;;;;3.90;3.40;;;;;;;32.86;53.21;98625.94;5108997;28;20278;-64
2023/08/01 11:10:33;;;;;;;3.80;3.30;;;;;;;32.61;50.80;98624.94;5108844;28;20696;-64
2023/08/01 11:13:01;;;;;;;4.32;3.25;;;;;;;32.30;53.12;98615.38;5108728;28;20211;-64
2023/08/01 11:15:29;;;;;;;4.03;3.25;;;;;;;32.09;50.69;98612.72;5108522;28;20193;-64
2023/08/01 11:17:56;;;;;;;3.92;3.08;;;;;;;32.22;54.31;98608.75;5109058;28;20201;-64
2023/08/01 11:20:26;;;;;;;4.35;3.30;;;;;;;32.14;55.61;98602.13;5108725;28;20225;-64
2023/08/01 11:22:56;;;;;;;4.57;3.50;;;;;;;32.53;59.14;98599.00;5108885;28;20347;-64
2023/08/01 11:25:35;;;;;;;4.35;3.40;;;;;;;32.75;53.14;98603.97;5108950;28;20208;-65
2023/08/01 11:28:09;;;;;;;4.07;3.22;;;;;;;32.96;52.80;98598.63;5108483;28;20208;-65
2023/08/01 11:30:36;;;;;;;3.80;3.30;;;;;;;33.01;52.81;98602.09;5107856;28;20220;-65
2023/08/01 11:33:05;;;;;;;3.53;3.10;;;;;;;33.19;53.75;98595.41;5108415;28;20194;-65
2023/08/01 11:35:31;;;;;;;3.83;3.30;;;;;;;33.16;49.02;98603.09;5108537;28;20209;-65